Time;durP1;ratioP1;P1;durP2;ratioP2;P2;SDS_P1;SDS_P2;PMS_P1;PMS_P2;Temp;Humidity;BMP_temperature;BMP_pressure;BME280_temperature;BME280_humidity;BME280_pressure;Samples;Min_cycle;Max_cycle;Signal;HPM_P1;HPM_P2
2022/11/21 00:01:32;;;;;;;21.85;14.88;;;2.40;99.90;;;;;;5115647;28;20036;-60
2022/11/21 00:03:57;;;;;;;23.13;15.32;;;2.30;99.90;;;;;;5115445;28;20397;-61
2022/11/21 00:06:23;;;;;;;22.73;14.95;;;2.30;99.90;;;;;;5115267;28;20035;-61
2022/11/21 00:08:49;;;;;;;21.58;15.02;;;2.30;99.90;;;;;;5115682;28;20035;-61
2022/11/21 00:11:15;;;;;;;24.02;15.82;;;2.30;99.90;;;;;;5115450;28;20036;-61
2022/11/21 00:13:41;;;;;;;19.75;13.90;;;2.30;99.90;;;;;;5115244;28;20040;-60
2022/11/21 00:16:16;;;;;;;24.25;16.17;;;2.20;99.90;;;;;;5114397;28;20143;-60
2022/11/21 00:18:42;;;;;;;23.25;16.25;;;2.20;99.90;;;;;;5113671;28;20046;-60
2022/11/21 00:21:14;;;;;;;20.88;14.82;;;2.20;99.90;;;;;;5113260;28;20032;-60
2022/11/21 00:23:39;;;;;;;20.35;14.50;;;2.20;99.90;;;;;;5114670;28;20084;-61
2022/11/21 00:26:06;;;;;;;24.70;15.60;;;2.20;99.90;;;;;;5115037;28;20031;-61
2022/11/21 00:28:32;;;;;;;23.10;14.80;;;2.20;99.90;;;;;;5114879;28;20558;-61
2022/11/21 00:30:58;;;;;;;22.73;14.70;;;2.20;99.90;;;;;;5096722;28;20043;-61
2022/11/21 00:33:23;;;;;;;20.65;14.60;;;2.20;99.90;;;;;;5114880;28;20393;-61
2022/11/21 00:35:49;;;;;;;19.88;14.50;;;2.20;99.90;;;;;;5114933;28;20112;-61
2022/11/21 00:38:15;;;;;;;21.08;15.50;;;2.20;99.90;;;;;;5114961;28;20047;-60
2022/11/21 00:40:43;;;;;;;25.17;15.95;;;2.20;99.90;;;;;;5114889;28;20031;-61
2022/11/21 00:43:08;;;;;;;22.58;14.70;;;2.20;99.90;;;;;;5114713;28;20031;-61
2022/11/21 00:45:34;;;;;;;21.20;13.82;;;2.20;99.90;;;;;;5114596;28;20108;-61
2022/11/21 00:48:00;;;;;;;21.20;14.02;;;2.30;99.90;;;;;;5112234;28;20035;-61
2022/11/21 00:50:25;;;;;;;24.35;15.10;;;2.20;99.90;;;;;;5112407;28;20039;-61
2022/11/21 00:52:55;;;;;;;26.80;16.90;;;2.20;99.90;;;;;;5114090;28;20459;-60
2022/11/21 00:55:21;;;;;;;21.42;14.45;;;2.10;99.90;;;;;;5114548;28;20088;-61
2022/11/21 00:57:47;;;;;;;18.23;13.43;;;2.10;99.90;;;;;;5114692;28;20048;-61
2022/11/21 01:00:13;;;;;;;17.25;12.88;;;2.10;99.90;;;;;;5114472;28;20119;-61
2022/11/21 01:02:38;;;;;;;20.13;12.95;;;2.00;99.90;;;;;;5114585;28;20119;-61
2022/11/21 01:05:05;;;;;;;21.05;13.43;;;1.90;99.90;;;;;;5114979;28;20481;-61
2022/11/21 01:07:31;;;;;;;17.77;12.45;;;1.80;99.90;;;;;;5095439;28;20099;-61
2022/11/21 01:09:57;;;;;;;18.25;13.13;;;1.70;99.90;;;;;;5114326;28;20027;-61
2022/11/21 01:12:22;;;;;;;17.95;12.80;;;1.70;99.90;;;;;;5114123;28;20046;-61
2022/11/21 01:14:48;;;;;;;20.48;12.90;;;1.70;99.90;;;;;;5114011;28;20052;-61
2022/11/21 01:17:14;;;;;;;18.50;13.70;;;1.50;99.90;;;;;;5112905;28;20035;-61
2022/11/21 01:19:40;;;;;;;19.55;13.85;;;1.40;99.90;;;;;;5112138;28;20488;-61
2022/11/21 01:22:05;;;;;;;19.70;13.18;;;1.40;99.90;;;;;;5112470;28;20114;-61
2022/11/21 01:24:31;;;;;;;25.13;13.55;;;1.30;99.90;;;;;;5113784;28;20496;-60
2022/11/21 01:26:57;;;;;;;19.50;12.68;;;1.30;99.90;;;;;;5113895;28;20092;-61
2022/11/21 01:29:22;;;;;;;23.48;14.10;;;1.20;99.90;;;;;;5113073;28;20039;-60
2022/11/21 01:31:48;;;;;;;19.27;13.73;;;1.20;99.90;;;;;;5113733;28;20594;-61
2022/11/21 01:34:15;;;;;;;16.27;12.52;;;1.20;99.90;;;;;;5113947;28;20096;-61
2022/11/21 01:36:40;;;;;;;20.27;12.98;;;1.10;99.90;;;;;;5113897;28;20036;-61
2022/11/21 01:39:07;;;;;;;17.45;12.55;;;1.10;99.90;;;;;;5113551;28;20117;-61
2022/11/21 01:41:35;;;;;;;21.40;12.13;;;1.00;99.90;;;;;;5113974;28;20380;-60
2022/11/21 01:44:23;;;;;;;20.77;12.70;;;1.00;99.90;;;;;;5113552;28;20062;-60
2022/11/21 01:46:49;;;;;;;18.02;13.07;;;0.90;99.90;;;;;;5113297;28;20039;-61
2022/11/21 01:49:25;;;;;;;20.52;12.60;;;0.90;99.90;;;;;;5113840;28;20040;-61
2022/11/21 01:52:11;;;;;;;16.45;11.77;;;0.80;99.90;;;;;;5113286;28;20126;-61
2022/11/21 01:55:02;;;;;;;17.88;11.98;;;0.70;99.90;;;;;;5113408;28;20071;-61
2022/11/21 01:57:30;;;;;;;17.80;11.88;;;0.60;99.90;;;;;;5113111;28;20496;-61
2022/11/21 02:00:07;;;;;;;18.88;12.40;;;0.60;99.90;;;;;;5113197;28;20460;-61
2022/11/21 02:02:38;;;;;;;19.33;12.35;;;0.60;99.90;;;;;;5113325;28;20036;-61
2022/11/21 02:05:07;;;;;;;17.40;11.48;;;0.60;99.90;;;;;;5113298;28;20040;-60
2022/11/21 02:07:38;;;;;;;24.00;13.23;;;0.50;99.90;;;;;;5113144;28;20051;-60
2022/11/21 02:10:05;;;;;;;18.10;11.48;;;0.50;99.90;;;;;;5113110;28;20115;-61
2022/11/21 02:12:38;;;;;;;15.82;11.80;;;0.40;99.90;;;;;;5094936;28;20123;-60
2022/11/21 02:15:04;;;;;;;18.23;11.82;;;0.50;99.90;;;;;;5112684;28;20059;-60
2022/11/21 02:17:30;;;;;;;20.25;12.55;;;0.40;99.90;;;;;;5112701;28;20035;-60
2022/11/21 02:19:59;;;;;;;18.92;12.45;;;0.40;99.90;;;;;;5112933;28;20164;-60
2022/11/21 02:23:01;;;;;;;18.77;12.20;;;0.40;99.90;;;;;;5112675;28;20040;-60
2022/11/21 02:25:29;;;;;;;21.15;12.00;;;0.40;99.90;;;;;;5112698;28;20493;-61
2022/11/21 02:28:01;;;;;;;17.20;11.40;;;0.40;99.90;;;;;;5112504;28;20061;-61
2022/11/21 02:30:29;;;;;;;16.27;11.43;;;0.30;99.90;;;;;;5112758;28;20051;-61
2022/11/21 02:32:55;;;;;;;16.48;11.57;;;0.30;99.90;;;;;;5112691;28;20054;-60
2022/11/21 02:35:20;;;;;;;17.75;12.30;;;0.20;99.90;;;;;;5112762;28;20044;-60
2022/11/21 02:37:56;;;;;;;18.20;12.77;;;0.20;99.90;;;;;;5112787;28;20039;-61
2022/11/21 02:40:35;;;;;;;19.48;13.25;;;0.20;99.90;;;;;;5112002;28;20442;-61
2022/11/21 02:43:32;;;;;;;19.23;12.70;;;0.10;99.90;;;;;;5112570;28;20058;-60
2022/11/21 02:45:58;;;;;;;21.77;14.50;;;0.20;99.90;;;;;;5094124;28;20039;-61
2022/11/21 02:48:23;;;;;;;22.08;14.70;;;0.20;99.90;;;;;;5112226;28;20039;-60
2022/11/21 02:50:49;;;;;;;20.75;14.30;;;0.10;99.90;;;;;;5112775;28;20040;-61
2022/11/21 02:53:17;;;;;;;16.35;11.93;;;0.10;99.90;;;;;;5112548;28;20051;-60
2022/11/21 02:55:43;;;;;;;19.67;12.65;;;0.10;99.90;;;;;;5112289;28;20077;-60
2022/11/21 02:58:10;;;;;;;16.05;11.80;;;0.10;99.90;;;;;;5112383;28;20039;-60
2022/11/21 03:00:36;;;;;;;15.80;11.75;;;0.00;99.90;;;;;;5112462;28;20138;-60
2022/11/21 03:03:03;;;;;;;19.33;12.73;;;0.00;99.90;;;;;;5112323;28;20032;-60
2022/11/21 03:05:29;;;;;;;18.55;12.18;;;0.00;99.90;;;;;;5112157;28;20154;-60
2022/11/21 03:07:55;;;;;;;18.20;12.57;;;0.10;99.90;;;;;;5094125;28;20382;-60
2022/11/21 03:10:20;;;;;;;18.88;12.82;;;0.10;99.90;;;;;;5112229;28;20040;-60
2022/11/21 03:12:46;;;;;;;20.23;14.13;;;0.10;99.90;;;;;;5111966;28;20047;-61
2022/11/21 03:15:14;;;;;;;17.63;13.30;;;0.10;99.90;;;;;;5111961;28;20086;-60
2022/11/21 03:17:40;;;;;;;22.02;13.20;;;0.10;99.90;;;;;;5093988;28;20047;-60
2022/11/21 03:20:06;;;;;;;23.45;13.65;;;0.10;99.90;;;;;;5111958;28;20035;-61
2022/11/21 03:22:32;;;;;;;21.02;13.48;;;0.00;99.90;;;;;;5112210;28;20042;-60
2022/11/21 03:24:58;;;;;;;19.98;13.75;;;0.10;99.90;;;;;;5112005;28;20393;-60
2022/11/21 03:27:24;;;;;;;21.75;13.95;;;0.10;99.90;;;;;;5111841;28;20032;-61
2022/11/21 03:29:49;;;;;;;20.02;13.27;;;-0.10;99.90;;;;;;5111943;28;20118;-60
2022/11/21 03:32:15;;;;;;;20.50;13.48;;;-0.10;99.90;;;;;;5112083;28;20031;-60
2022/11/21 03:34:41;;;;;;;23.23;15.05;;;-0.20;99.90;;;;;;5111870;28;20104;-60
2022/11/21 03:37:06;;;;;;;20.10;13.80;;;-0.10;99.90;;;;;;5111934;28;20035;-60
2022/11/21 03:39:32;;;;;;;20.23;13.68;;;-0.10;99.90;;;;;;5111536;28;20098;-60
2022/11/21 03:41:58;;;;;;;19.02;12.43;;;-0.10;99.90;;;;;;5111853;28;20035;-61
2022/11/21 03:44:23;;;;;;;21.20;14.65;;;0.00;99.90;;;;;;5111740;28;20473;-60
2022/11/21 03:46:49;;;;;;;23.23;14.65;;;-0.10;99.90;;;;;;5111761;28;20116;-60
2022/11/21 03:49:15;;;;;;;22.55;14.15;;;-0.20;99.90;;;;;;5111678;28;20051;-61
2022/11/21 03:51:42;;;;;;;25.55;14.73;;;-0.30;99.90;;;;;;5113814;28;20342;-61
2022/11/21 03:54:08;;;;;;;25.05;15.45;;;-0.30;99.90;;;;;;5115612;28;20525;-60
2022/11/21 03:56:34;;;;;;;19.48;13.60;;;-0.20;99.90;;;;;;5097243;28;20484;-60
2022/11/21 03:59:01;;;;;;;25.38;15.65;;;-0.30;99.90;;;;;;5115361;28;20044;-60
2022/11/21 04:01:27;;;;;;;21.65;14.70;;;-0.40;99.90;;;;;;5115565;28;20088;-60
2022/11/21 04:03:53;;;;;;;22.98;14.48;;;-0.30;99.90;;;;;;5115150;28;20043;-60
2022/11/21 04:06:21;;;;;;;21.85;15.02;;;-0.30;99.90;;;;;;5114905;28;20059;-61
2022/11/21 04:08:47;;;;;;;23.95;15.32;;;-0.20;99.90;;;;;;5115417;28;20047;-61
2022/11/21 04:11:13;;;;;;;23.15;15.23;;;-0.30;99.90;;;;;;5115274;28;20050;-60
2022/11/21 04:13:38;;;;;;;23.67;15.18;;;-0.20;99.90;;;;;;5115122;28;20039;-60
2022/11/21 04:16:05;;;;;;;24.58;16.02;;;-0.30;99.90;;;;;;5114753;28;20051;-60
2022/11/21 04:18:30;;;;;;;27.13;17.13;;;-0.30;99.90;;;;;;5115396;28;20109;-61
2022/11/21 04:20:57;;;;;;;24.23;16.25;;;-0.30;99.90;;;;;;5114855;28;20047;-61
2022/11/21 04:23:23;;;;;;;24.02;16.63;;;-0.20;99.90;;;;;;5096867;28;20031;-60
2022/11/21 04:25:49;;;;;;;26.05;15.98;;;-0.30;99.90;;;;;;5114969;28;20565;-60
2022/11/21 04:28:14;;;;;;;24.67;15.57;;;-0.30;99.90;;;;;;5114857;28;20042;-61
2022/11/21 04:30:40;;;;;;;24.58;15.63;;;-0.30;99.90;;;;;;5114829;28;20036;-60
2022/11/21 04:33:06;;;;;;;22.33;15.25;;;-0.40;99.90;;;;;;5114822;28;20424;-60
2022/11/21 04:35:32;;;;;;;26.55;17.10;;;-0.30;99.90;;;;;;5114884;28;20370;-61
2022/11/21 04:37:57;;;;;;;27.63;17.23;;;-0.20;99.90;;;;;;5114599;28;20123;-61
2022/11/21 04:40:23;;;;;;;28.70;17.50;;;-0.20;99.90;;;;;;5114800;28;20123;-61
2022/11/21 04:42:49;;;;;;;28.02;16.40;;;-0.40;99.90;;;;;;5114673;28;20031;-61
2022/11/21 04:45:16;;;;;;;29.33;18.10;;;-0.30;99.90;;;;;;5114617;28;20042;-60
2022/11/21 04:47:44;;;;;;;28.63;19.50;;;-0.30;99.90;;;;;;5114482;28;20039;-61
2022/11/21 04:50:14;;;;;;;31.40;19.40;;;-0.30;99.90;;;;;;5114692;28;20043;-60
2022/11/21 04:52:41;;;;;;;29.83;18.70;;;-0.30;99.90;;;;;;5114623;28;20265;-60
2022/11/21 04:55:07;;;;;;;32.15;18.88;;;-0.20;99.90;;;;;;5114558;28;20036;-60
2022/11/21 04:57:33;;;;;;;31.52;18.75;;;-0.20;99.90;;;;;;5114108;28;20031;-60
2022/11/21 04:59:59;;;;;;;31.25;18.40;;;-0.20;99.90;;;;;;5114482;28;20114;-60
2022/11/21 05:02:25;;;;;;;29.20;18.40;;;-0.10;99.90;;;;;;5113974;28;20173;-60
2022/11/21 05:04:50;;;;;;;30.75;18.17;;;-0.20;99.90;;;;;;5114536;28;20039;-60
2022/11/21 05:07:17;;;;;;;31.70;19.77;;;-0.20;99.90;;;;;;5114463;28;20035;-60
2022/11/21 05:09:43;;;;;;;30.23;18.67;;;-0.20;99.90;;;;;;5114112;28;20555;-61
2022/11/21 05:14:54;;;;;;;28.10;19.02;;;-0.20;99.90;;;;;;5113969;28;20059;-60
2022/11/21 05:17:19;;;;;;;32.47;18.83;;;-0.20;99.90;;;;;;5114139;28;20040;-60
2022/11/21 05:19:45;;;;;;;33.65;19.48;;;-0.30;99.90;;;;;;5095577;28;20068;-60
2022/11/21 05:22:11;;;;;;;31.88;19.30;;;-0.40;99.90;;;;;;5113934;28;20381;-60
2022/11/21 05:24:37;;;;;;;33.30;19.77;;;-0.30;99.90;;;;;;5113635;28;20173;-60
2022/11/21 05:27:03;;;;;;;33.40;20.85;;;-0.30;99.90;;;;;;5113799;28;20038;-60
2022/11/21 05:29:28;;;;;;;29.00;18.88;;;-0.30;99.90;;;;;;5113833;28;20047;-60
2022/11/21 05:31:54;;;;;;;29.17;19.73;;;-0.20;99.90;;;;;;5113609;28;20039;-60
2022/11/21 05:34:20;;;;;;;30.50;19.38;;;-0.30;99.90;;;;;;5113800;28;20032;-60
2022/11/21 05:36:45;;;;;;;28.33;18.77;;;-0.40;99.90;;;;;;5113616;28;20107;-60
2022/11/21 05:39:11;;;;;;;30.40;18.52;;;-0.30;99.90;;;;;;5113501;28;20075;-61
2022/11/21 05:41:37;;;;;;;30.17;18.60;;;-0.40;99.90;;;;;;5112406;28;20040;-61
2022/11/21 05:44:02;;;;;;;32.78;19.13;;;-0.40;99.90;;;;;;5113521;28;20078;-60
2022/11/21 05:46:28;;;;;;;31.75;19.75;;;-0.30;99.90;;;;;;5113627;28;20063;-60
2022/11/21 05:48:54;;;;;;;29.08;18.45;;;-0.30;99.90;;;;;;5112052;28;20093;-60
2022/11/21 05:51:20;;;;;;;32.17;19.35;;;-0.40;99.90;;;;;;5110558;28;20035;-60
2022/11/21 05:53:47;;;;;;;29.80;19.67;;;-0.40;99.90;;;;;;5092454;28;20130;-60
2022/11/21 05:56:17;;;;;;;29.33;17.75;;;-0.40;99.90;;;;;;5094864;28;20036;-60
2022/11/21 05:58:44;;;;;;;30.85;18.17;;;-0.40;99.90;;;;;;5113640;28;20480;-60
2022/11/21 06:01:11;;;;;;;28.27;18.58;;;-0.50;99.90;;;;;;5113375;28;20058;-60
2022/11/21 06:03:38;;;;;;;28.17;17.58;;;-0.50;99.90;;;;;;5113309;28;20036;-61
2022/11/21 06:06:07;;;;;;;27.20;17.58;;;-0.60;99.90;;;;;;5113325;28;20145;-60
2022/11/21 06:08:39;;;;;;;30.80;19.23;;;-0.50;99.90;;;;;;5113238;28;20097;-59
2022/11/21 06:11:07;;;;;;;29.90;19.67;;;-0.50;99.90;;;;;;5113054;28;20048;-60
2022/11/21 06:13:34;;;;;;;34.05;20.42;;;-0.50;99.90;;;;;;5112733;28;20044;-60
2022/11/21 06:16:11;;;;;;;33.88;20.13;;;-0.50;99.90;;;;;;5094323;28;20059;-60
2022/11/21 06:18:39;;;;;;;31.95;19.83;;;-0.50;99.90;;;;;;5112254;28;20031;-60
2022/11/21 06:21:14;;;;;;;36.65;19.13;;;-0.50;99.90;;;;;;5092276;28;20032;-60
2022/11/21 06:23:39;;;;;;;31.95;20.52;;;-0.50;99.90;;;;;;5110774;28;20032;-60
2022/11/21 06:26:07;;;;;;;31.88;18.48;;;-0.50;99.90;;;;;;5112156;28;20059;-60
2022/11/21 06:28:36;;;;;;;30.50;19.73;;;-0.60;99.90;;;;;;5112578;28;20119;-60
2022/11/21 06:31:03;;;;;;;31.27;19.40;;;-0.50;99.90;;;;;;5112708;28;20050;-61
2022/11/21 06:33:29;;;;;;;33.53;19.75;;;-0.60;99.90;;;;;;5112575;28;20067;-60
2022/11/21 06:35:54;;;;;;;33.50;20.63;;;-0.60;99.90;;;;;;5112507;28;20078;-60
2022/11/21 06:38:20;;;;;;;37.10;22.60;;;-0.50;99.90;;;;;;5112532;28;20462;-60
2022/11/21 06:40:46;;;;;;;35.05;21.83;;;-0.60;99.90;;;;;;5112661;28;20036;-60
2022/11/21 06:43:12;;;;;;;32.83;20.17;;;-0.60;99.90;;;;;;5112718;28;20050;-60
2022/11/21 06:45:37;;;;;;;29.42;18.88;;;-0.60;99.90;;;;;;5112742;28;20150;-60
2022/11/21 06:48:03;;;;;;;35.83;21.70;;;-0.70;99.90;;;;;;5112383;28;20032;-60
2022/11/21 06:50:30;;;;;;;32.05;20.10;;;-0.60;99.90;;;;;;5110492;28;20031;-60
2022/11/21 06:52:59;;;;;;;33.63;20.00;;;-0.60;99.90;;;;;;5110644;28;20078;-60
2022/11/21 06:55:26;;;;;;;29.20;18.85;;;-0.60;99.90;;;;;;5111309;28;20046;-60
2022/11/21 06:57:52;;;;;;;31.55;19.67;;;-0.60;99.90;;;;;;5111159;28;20039;-60
2022/11/21 07:00:19;;;;;;;30.98;19.98;;;-0.50;99.90;;;;;;5111411;28;20500;-60
2022/11/21 07:02:45;;;;;;;33.45;20.63;;;-0.50;99.90;;;;;;5092454;28;20036;-60
2022/11/21 07:05:11;;;;;;;31.00;20.40;;;-0.50;99.90;;;;;;5110653;28;20085;-60
2022/11/21 07:07:37;;;;;;;30.70;19.23;;;-0.50;99.90;;;;;;5112170;28;20032;-60
2022/11/21 07:10:03;;;;;;;30.55;18.27;;;-0.50;99.90;;;;;;5112160;28;20040;-60
2022/11/21 07:15:13;;;;;;;31.55;20.52;;;-0.50;99.90;;;;;;5111867;28;20047;-60
2022/11/21 07:17:39;;;;;;;28.98;18.75;;;-0.50;99.90;;;;;;5112173;28;20043;-59
2022/11/21 07:20:05;;;;;;;31.23;19.98;;;-0.60;99.90;;;;;;5111098;28;20035;-60
2022/11/21 07:22:30;;;;;;;29.15;18.27;;;-0.50;99.90;;;;;;5090500;28;20058;-60
2022/11/21 07:24:56;;;;;;;30.80;18.55;;;-0.60;99.90;;;;;;5111111;28;20477;-60
2022/11/21 07:27:22;;;;;;;31.60;19.92;;;-0.40;99.90;;;;;;5114818;28;20071;-60
2022/11/21 07:29:47;;;;;;;30.98;18.80;;;-0.50;99.90;;;;;;5115910;28;20168;-60
2022/11/21 07:32:14;;;;;;;30.65;19.25;;;-0.50;99.90;;;;;;5115825;28;20074;-60
2022/11/21 07:34:39;;;;;;;33.58;20.40;;;-0.60;99.90;;;;;;5114818;28;20039;-61
2022/11/21 07:37:05;;;;;;;31.17;19.75;;;-0.60;99.90;;;;;;5116245;28;20096;-61
2022/11/21 07:39:31;;;;;;;34.42;21.00;;;-0.50;99.90;;;;;;5115422;28;20051;-60
2022/11/21 07:41:56;;;;;;;38.00;21.83;;;-0.50;99.90;;;;;;5116155;28;20057;-60
2022/11/21 07:44:22;;;;;;;35.35;20.58;;;-0.50;99.90;;;;;;5115680;28;20035;-60
2022/11/21 07:46:47;;;;;;;31.33;20.00;;;-0.40;99.90;;;;;;5115545;28;20623;-60
2022/11/21 07:49:13;;;;;;;39.17;22.13;;;-0.50;99.90;;;;;;5115413;28;20038;-60
2022/11/21 07:51:38;;;;;;;37.53;21.77;;;-0.50;99.90;;;;;;5115686;28;20502;-61
2022/11/21 07:54:04;;;;;;;37.25;22.38;;;-0.40;99.90;;;;;;5115699;28;20039;-60
2022/11/21 07:56:30;;;;;;;39.30;22.63;;;-0.30;99.90;;;;;;5097208;28;20060;-61
2022/11/21 07:58:56;;;;;;;40.45;23.63;;;-0.30;99.90;;;;;;5115607;28;20147;-60
2022/11/21 08:01:21;;;;;;;46.65;27.17;;;-0.30;99.90;;;;;;5115365;28;20036;-61
2022/11/21 08:03:47;;;;;;;41.63;24.95;;;-0.30;99.90;;;;;;5115719;28;20027;-61
2022/11/21 08:06:12;;;;;;;37.88;23.75;;;-0.20;99.90;;;;;;5115445;28;20469;-61
2022/11/21 08:08:38;;;;;;;34.63;22.75;;;-0.20;99.90;;;;;;5097384;28;20040;-60
2022/11/21 08:11:05;;;;;;;40.92;24.55;;;-0.30;99.90;;;;;;5115228;28;20164;-60
2022/11/21 08:13:31;;;;;;;40.70;24.40;;;-0.20;99.90;;;;;;5115212;28;20040;-60
2022/11/21 08:15:57;;;;;;;52.05;27.80;;;0.00;99.90;;;;;;5114996;28;20517;-60
2022/11/21 08:18:22;;;;;;;46.72;28.45;;;0.00;99.90;;;;;;5115459;28;20120;-61
2022/11/21 08:20:48;;;;;;;44.28;26.10;;;0.00;99.90;;;;;;5114992;28;20047;-61
2022/11/21 08:23:14;;;;;;;39.60;23.73;;;0.10;99.90;;;;;;5114891;28;20478;-61
2022/11/21 08:25:41;;;;;;;42.38;24.58;;;0.20;99.90;;;;;;5114662;28;20100;-61
2022/11/21 08:28:09;;;;;;;47.50;25.70;;;0.10;99.90;;;;;;5115267;28;20040;-61
2022/11/21 08:30:35;;;;;;;49.08;25.60;;;0.30;99.90;;;;;;5114705;28;20051;-61
2022/11/21 08:33:01;;;;;;;37.67;23.13;;;0.40;99.90;;;;;;5114791;28;20545;-61
2022/11/21 08:35:27;;;;;;;34.67;23.00;;;0.50;99.90;;;;;;5114858;28;20119;-61
2022/11/21 08:37:57;;;;;;;36.70;22.88;;;0.70;99.90;;;;;;5114044;28;20081;-61
2022/11/21 08:40:25;;;;;;;35.38;21.90;;;0.70;99.90;;;;;;5114694;28;20110;-61
2022/11/21 08:42:58;;;;;;;34.25;22.25;;;0.90;99.90;;;;;;5114473;28;20032;-61
2022/11/21 08:45:24;;;;;;;34.03;22.08;;;0.90;99.90;;;;;;5114713;28;20086;-61
2022/11/21 08:47:50;;;;;;;32.03;20.08;;;1.00;99.90;;;;;;5114637;28;20039;-61
2022/11/21 08:50:15;;;;;;;32.05;20.23;;;1.10;99.90;;;;;;5113161;28;20043;-61
2022/11/21 08:52:41;;;;;;;31.55;20.45;;;1.10;99.90;;;;;;5112704;28;20042;-61
2022/11/21 08:55:07;;;;;;;27.58;18.88;;;1.10;99.90;;;;;;5095103;28;20096;-61
2022/11/21 08:57:39;;;;;;;31.80;20.13;;;1.20;99.90;;;;;;5114277;28;20401;-61
2022/11/21 09:00:08;;;;;;;31.05;18.67;;;1.20;99.90;;;;;;5114511;28;20042;-61
2022/11/21 09:02:35;;;;;;;31.08;20.58;;;1.20;99.90;;;;;;5114220;28;20553;-61
2022/11/21 09:05:01;;;;;;;27.02;19.75;;;1.20;99.90;;;;;;5096226;28;20044;-61
2022/11/21 09:07:26;;;;;;;30.52;18.98;;;1.20;99.90;;;;;;5114276;28;20039;-61
2022/11/21 09:09:52;;;;;;;31.20;19.40;;;1.20;99.90;;;;;;5114177;28;20126;-60
2022/11/21 09:12:18;;;;;;;31.85;19.70;;;1.20;99.90;;;;;;5114332;28;20039;-61
2022/11/21 09:20:12;;;;;;;27.27;17.95;;;1.20;99.90;;;;;;5113108;28;20119;-61
2022/11/21 09:22:38;;;;;;;32.67;18.77;;;1.30;99.90;;;;;;5111668;28;20528;-60
2022/11/21 09:25:04;;;;;;;26.25;17.95;;;1.30;99.90;;;;;;5112453;28;20091;-61
2022/11/21 09:27:29;;;;;;;27.77;18.50;;;1.40;99.90;;;;;;5113588;28;20067;-61
2022/11/21 09:29:55;;;;;;;28.05;18.75;;;1.40;99.90;;;;;;5113863;28;20074;-61
2022/11/21 09:32:21;;;;;;;28.02;18.23;;;1.50;99.90;;;;;;5113551;28;20042;-61
2022/11/21 09:34:47;;;;;;;29.48;18.90;;;1.40;99.90;;;;;;5113641;28;20040;-61
2022/11/21 09:37:13;;;;;;;30.35;19.92;;;1.40;99.90;;;;;;5113445;28;20035;-61
2022/11/21 09:39:38;;;;;;;28.77;18.52;;;1.40;99.90;;;;;;5113306;28;20126;-61
2022/11/21 09:42:35;;;;;;;28.38;18.65;;;1.40;99.90;;;;;;5113661;28;20040;-60
2022/11/21 09:45:14;;;;;;;31.33;18.60;;;1.40;99.90;;;;;;5113470;28;20074;-61
2022/11/21 09:47:46;;;;;;;27.98;18.77;;;1.40;99.90;;;;;;5113276;28;20031;-60
2022/11/21 09:50:12;;;;;;;28.58;18.70;;;1.40;99.90;;;;;;5111641;28;20034;-61
2022/11/21 09:52:50;;;;;;;28.45;17.95;;;1.50;99.90;;;;;;5111062;28;20377;-61
2022/11/21 09:55:33;;;;;;;30.02;18.70;;;1.50;99.90;;;;;;5111448;28;20035;-61
2022/11/21 09:58:05;;;;;;;30.92;20.30;;;1.50;99.90;;;;;;5113300;28;20127;-60
2022/11/21 10:00:31;;;;;;;31.50;18.48;;;1.50;99.90;;;;;;5113225;28;20508;-61
2022/11/21 10:02:58;;;;;;;29.60;18.88;;;1.50;99.90;;;;;;5113147;28;20036;-61
2022/11/21 10:05:45;;;;;;;28.27;17.65;;;1.60;99.90;;;;;;5113579;28;20037;-61
2022/11/21 10:08:43;;;;;;;30.02;18.88;;;1.70;99.90;;;;;;5113356;28;20240;-62
2022/11/21 10:11:23;;;;;;;32.83;17.95;;;1.70;99.90;;;;;;5010685;28;20072;-61
2022/11/21 10:14:04;;;;;;;26.50;17.63;;;1.70;99.90;;;;;;5010562;28;20095;-61
2022/11/21 10:16:33;;;;;;;31.83;20.55;;;1.70;99.90;;;;;;5010661;28;20049;-61
2022/11/21 10:19:18;;;;;;;29.30;19.80;;;1.70;99.90;;;;;;5010740;28;20485;-62
2022/11/21 10:21:55;;;;;;;29.83;19.33;;;1.80;99.90;;;;;;5010400;28;20045;-61
2022/11/21 10:24:48;;;;;;;27.55;17.60;;;1.80;99.90;;;;;;5010568;28;20081;-61
2022/11/21 10:27:28;;;;;;;29.23;18.85;;;1.90;99.90;;;;;;5010276;28;20269;-62
2022/11/21 10:30:04;;;;;;;27.48;18.67;;;2.00;99.90;;;;;;4994186;28;20046;-61
2022/11/21 10:33:03;;;;;;;29.00;19.25;;;1.90;99.90;;;;;;5010556;28;20100;-61
2022/11/21 10:35:40;;;;;;;27.58;18.05;;;2.00;99.90;;;;;;4971094;28;20073;-61
2022/11/21 10:38:35;;;;;;;30.30;18.48;;;2.00;99.90;;;;;;4971249;28;20545;-61
2022/11/21 10:41:16;;;;;;;27.67;17.83;;;2.10;99.90;;;;;;4969484;28;20089;-62
2022/11/21 10:46:55;;;;;;;24.23;17.23;;;2.20;99.90;;;;;;4987898;28;20037;-61
2022/11/21 10:49:21;;;;;;;25.92;16.83;;;2.30;99.90;;;;;;5069902;28;20270;-62
2022/11/21 10:51:59;;;;;;;25.25;16.40;;;2.30;99.90;;;;;;5069992;28;20173;-62
2022/11/21 10:54:34;;;;;;;26.52;17.20;;;2.30;99.90;;;;;;5069679;28;20142;-62
2022/11/21 10:57:13;;;;;;;25.02;16.90;;;2.30;99.90;;;;;;5069685;28;20119;-61
2022/11/21 10:59:39;;;;;;;27.20;17.23;;;2.30;99.90;;;;;;5069926;28;20049;-62
2022/11/21 11:02:12;;;;;;;26.55;16.17;;;2.40;99.90;;;;;;5059613;28;20047;-62
2022/11/21 11:04:39;;;;;;;24.10;16.40;;;2.50;99.90;;;;;;5076550;28;20644;-62
2022/11/21 11:07:26;;;;;;;23.48;17.42;;;2.60;99.90;;;;;;5076594;28;20133;-62
2022/11/21 11:10:12;;;;;;;24.10;15.75;;;2.80;99.90;;;;;;5076539;28;20123;-61
2022/11/21 11:15:25;;;;;;;26.13;16.20;;;2.80;99.90;;;;;;5119006;28;20062;-62
2022/11/21 11:18:00;;;;;;;20.38;13.98;;;3.00;99.90;;;;;;5119030;28;20047;-62
2022/11/21 11:20:40;;;;;;;20.65;13.88;;;3.10;99.90;;;;;;5119114;28;20059;-62
2022/11/21 11:23:18;;;;;;;23.25;15.77;;;3.20;99.90;;;;;;5118909;28;20044;-62
2022/11/21 11:26:05;;;;;;;20.85;14.43;;;3.30;99.90;;;;;;5119028;28;20039;-62
2022/11/21 11:28:35;;;;;;;23.17;14.75;;;3.50;99.90;;;;;;5118222;28;20055;-62
2022/11/21 11:31:02;;;;;;;20.85;13.63;;;3.70;99.90;;;;;;5119190;28;20042;-62
2022/11/21 11:33:31;;;;;;;23.35;14.77;;;4.00;99.90;;;;;;5118691;28;20044;-62
2022/11/21 11:36:14;;;;;;;19.60;13.25;;;4.10;99.90;;;;;;5118642;28;20050;-62
2022/11/21 11:38:55;;;;;;;18.67;13.18;;;4.20;99.90;;;;;;5119015;28;20158;-62
2022/11/21 11:47:57;;;;;;;18.05;12.98;;;4.00;99.90;;;;;;5015906;28;20147;-61
2022/11/21 11:50:36;;;;;;;20.33;13.88;;;4.00;99.90;;;;;;5015941;28;20077;-61
2022/11/21 11:53:12;;;;;;;19.90;13.73;;;3.90;99.90;;;;;;5016066;28;20396;-61
2022/11/21 11:55:46;;;;;;;19.92;13.55;;;3.80;99.90;;;;;;5015952;28;20134;-61
2022/11/21 11:58:35;;;;;;;17.92;12.30;;;3.80;99.90;;;;;;5016089;28;20046;-61
2022/11/21 12:01:15;;;;;;;18.85;13.32;;;3.80;99.90;;;;;;5015908;28;20042;-61
2022/11/21 12:03:57;;;;;;;19.02;13.63;;;3.80;99.90;;;;;;5015835;28;20053;-61
2022/11/21 12:06:34;;;;;;;20.85;13.95;;;3.80;99.90;;;;;;5015844;28;20185;-61
2022/11/21 12:09:14;;;;;;;17.70;14.05;;;3.80;99.90;;;;;;5015954;28;20045;-61
2022/11/21 12:12:05;;;;;;;17.88;12.85;;;3.80;99.90;;;;;;5014367;28;20096;-61
2022/11/21 12:17:46;;;;;;;21.50;14.25;;;3.70;99.90;;;;;;5012743;28;20054;-61
2022/11/21 12:20:21;;;;;;;21.33;13.98;;;3.80;99.90;;;;;;5040011;28;20174;-61
2022/11/21 12:22:50;;;;;;;18.55;13.65;;;3.60;99.90;;;;;;5115046;28;20047;-61
2022/11/21 12:25:20;;;;;;;17.85;13.38;;;3.70;99.90;;;;;;5115179;28;20047;-62
2022/11/21 12:27:52;;;;;;;17.88;13.00;;;3.70;99.90;;;;;;5114851;28;20100;-61
2022/11/21 12:30:36;;;;;;;17.77;12.90;;;3.70;99.90;;;;;;5097057;28;20051;-61
2022/11/21 12:33:19;;;;;;;20.58;13.18;;;3.70;99.90;;;;;;5115076;28;20044;-61
2022/11/21 12:36:07;;;;;;;19.48;12.45;;;3.70;99.90;;;;;;5114782;28;20492;-61
2022/11/21 12:38:57;;;;;;;23.17;12.68;;;3.80;99.90;;;;;;5114663;28;20493;-61
2022/11/21 12:44:52;;;;;;;16.85;11.77;;;3.80;99.90;;;;;;5114657;28;20043;-61
2022/11/21 12:47:26;;;;;;;15.32;11.70;;;3.80;99.90;;;;;;5114820;28;20089;-62
2022/11/21 12:55:51;;;;;;;14.68;10.15;;;3.90;99.90;;;;;;5114848;28;20101;-62
2022/11/21 12:58:26;;;;;;;16.73;10.68;;;3.90;99.90;;;;;;5114371;28;20044;-61
2022/11/21 13:00:52;;;;;;;16.08;11.10;;;3.90;99.90;;;;;;5114398;28;20031;-61
2022/11/21 13:03:55;;;;;;;16.02;10.98;;;3.90;99.90;;;;;;5114754;28;20040;-61
2022/11/21 13:06:31;;;;;;;19.50;11.18;;;4.00;99.90;;;;;;5114468;28;20031;-61
2022/11/21 13:09:01;;;;;;;16.10;11.15;;;4.00;99.90;;;;;;5114231;28;20054;-61
2022/11/21 13:12:00;;;;;;;15.32;10.55;;;4.00;99.90;;;;;;5114129;28;20512;-61
2022/11/21 13:14:31;;;;;;;15.07;9.57;;;4.00;99.90;;;;;;5113900;28;20112;-61
2022/11/21 13:17:18;;;;;;;15.40;11.00;;;4.00;99.90;;;;;;5114073;28;20047;-61
2022/11/21 13:20:15;;;;;;;15.10;10.80;;;4.00;99.90;;;;;;5114255;28;20116;-61
2022/11/21 13:22:44;;;;;;;15.00;10.50;;;4.00;99.90;;;;;;5114180;28;20111;-62